sensor_id;sensor_type;location;lat;lon;timestamp;pressure;altitude;pressure_sealevel;temperature
70969;BMP280;58630;43.022;25.100;2024-03-23T00:52:33;;;;15.20
70969;BMP280;58630;43.022;25.100;2024-03-23T00:54:58;;;;15.20
70969;BMP280;58630;43.022;25.100;2024-03-23T00:57:24;;;;15.20
70969;BMP280;58630;43.022;25.100;2024-03-23T00:59:49;;;;15.20
70969;BMP280;58630;43.022;25.100;2024-03-23T01:02:15;;;;15.10
70969;BMP280;58630;43.022;25.100;2024-03-23T01:04:40;;;;15.10
70969;BMP280;58630;43.022;25.100;2024-03-23T01:07:06;;;;15.10
70969;BMP280;58630;43.022;25.100;2024-03-23T01:09:31;;;;15.00
70969;BMP280;58630;43.022;25.100;2024-03-23T01:11:57;;;;15.00
70969;BMP280;58630;43.022;25.100;2024-03-23T01:14:22;;;;15.00
70969;BMP280;58630;43.022;25.100;2024-03-23T01:16:48;;;;15.00
70969;BMP280;58630;43.022;25.100;2024-03-23T01:19:14;;;;15.00
70969;BMP280;58630;43.022;25.100;2024-03-23T01:21:39;;;;14.90
70969;BMP280;58630;43.022;25.100;2024-03-23T01:24:05;;;;14.90
70969;BMP280;58630;43.022;25.100;2024-03-23T01:26:30;;;;14.90
70969;BMP280;58630;43.022;25.100;2024-03-23T01:28:56;;;;14.80
70969;BMP280;58630;43.022;25.100;2024-03-23T01:31:21;;;;14.80
70969;BMP280;58630;43.022;25.100;2024-03-23T01:33:47;;;;14.80
70969;BMP280;58630;43.022;25.100;2024-03-23T01:36:12;;;;14.80
70969;BMP280;58630;43.022;25.100;2024-03-23T01:38:38;;;;14.80
70969;BMP280;58630;43.022;25.100;2024-03-23T01:41:03;;;;14.70
70969;BMP280;58630;43.022;25.100;2024-03-23T01:43:29;;;;14.70
70969;BMP280;58630;43.022;25.100;2024-03-23T01:45:54;;;;14.70
70969;BMP280;58630;43.022;25.100;2024-03-23T01:48:21;;;;14.70
70969;BMP280;58630;43.022;25.100;2024-03-23T01:50:46;;;;14.60
70969;BMP280;58630;43.022;25.100;2024-03-23T01:53:13;;;;14.60
70969;BMP280;58630;43.022;25.100;2024-03-23T01:55:42;;;;14.60
70969;BMP280;58630;43.022;25.100;2024-03-23T01:58:08;;;;14.60
70969;BMP280;58630;43.022;25.100;2024-03-23T02:00:33;;;;14.50
70969;BMP280;58630;43.022;25.100;2024-03-23T02:02:59;;;;14.50
70969;BMP280;58630;43.022;25.100;2024-03-23T02:05:24;;;;14.50
70969;BMP280;58630;43.022;25.100;2024-03-23T02:07:50;;;;14.50
70969;BMP280;58630;43.022;25.100;2024-03-23T02:10:16;;;;14.50
70969;BMP280;58630;43.022;25.100;2024-03-23T02:12:41;;;;14.40
70969;BMP280;58630;43.022;25.100;2024-03-23T02:15:07;;;;14.40
70969;BMP280;58630;43.022;25.100;2024-03-23T02:17:34;;;;14.30
70969;BMP280;58630;43.022;25.100;2024-03-23T02:20:00;;;;14.30
70969;BMP280;58630;43.022;25.100;2024-03-23T02:22:35;;;;14.30
70969;BMP280;58630;43.022;25.100;2024-03-23T02:25:00;;;;14.30
70969;BMP280;58630;43.022;25.100;2024-03-23T02:27:28;;;;14.20
70969;BMP280;58630;43.022;25.100;2024-03-23T02:29:53;;;;14.20
70969;BMP280;58630;43.022;25.100;2024-03-23T02:32:19;;;;14.20
70969;BMP280;58630;43.022;25.100;2024-03-23T02:34:44;;;;14.20
70969;BMP280;58630;43.022;25.100;2024-03-23T02:37:10;;;;14.20
70969;BMP280;58630;43.022;25.100;2024-03-23T02:39:36;;;;14.10
70969;BMP280;58630;43.022;25.100;2024-03-23T02:42:02;;;;14.10
70969;BMP280;58630;43.022;25.100;2024-03-23T02:44:28;;;;14.10
70969;BMP280;58630;43.022;25.100;2024-03-23T02:46:53;;;;14.00
70969;BMP280;58630;43.022;25.100;2024-03-23T02:49:19;;;;14.00
70969;BMP280;58630;43.022;25.100;2024-03-23T02:51:46;;;;14.00
70969;BMP280;58630;43.022;25.100;2024-03-23T02:54:14;;;;14.00
70969;BMP280;58630;43.022;25.100;2024-03-23T02:56:39;;;;13.90
70969;BMP280;58630;43.022;25.100;2024-03-23T02:59:05;;;;13.90
70969;BMP280;58630;43.022;25.100;2024-03-23T03:01:30;;;;13.90
70969;BMP280;58630;43.022;25.100;2024-03-23T03:03:56;;;;13.90
70969;BMP280;58630;43.022;25.100;2024-03-23T03:06:27;;;;13.80
70969;BMP280;58630;43.022;25.100;2024-03-23T03:08:53;;;;13.80
70969;BMP280;58630;43.022;25.100;2024-03-23T03:11:19;;;;13.80
70969;BMP280;58630;43.022;25.100;2024-03-23T03:13:44;;;;13.80
70969;BMP280;58630;43.022;25.100;2024-03-23T03:16:10;;;;13.70
70969;BMP280;58630;43.022;25.100;2024-03-23T03:18:36;;;;13.70
70969;BMP280;58630;43.022;25.100;2024-03-23T03:21:01;;;;13.70
70969;BMP280;58630;43.022;25.100;2024-03-23T03:23:27;;;;13.70
70969;BMP280;58630;43.022;25.100;2024-03-23T03:25:53;;;;13.70
70969;BMP280;58630;43.022;25.100;2024-03-23T03:28:18;;;;13.60
70969;BMP280;58630;43.022;25.100;2024-03-23T03:30:44;;;;13.60
70969;BMP280;58630;43.022;25.100;2024-03-23T03:33:10;;;;13.60
70969;BMP280;58630;43.022;25.100;2024-03-23T03:35:35;;;;13.60
70969;BMP280;58630;43.022;25.100;2024-03-23T03:38:04;;;;13.50
70969;BMP280;58630;43.022;25.100;2024-03-23T03:40:29;;;;13.50
70969;BMP280;58630;43.022;25.100;2024-03-23T03:42:55;;;;13.50
70969;BMP280;58630;43.022;25.100;2024-03-23T03:45:21;;;;13.50
70969;BMP280;58630;43.022;25.100;2024-03-23T03:47:46;;;;13.40
70969;BMP280;58630;43.022;25.100;2024-03-23T03:50:12;;;;13.40
70969;BMP280;58630;43.022;25.100;2024-03-23T03:52:38;;;;13.40
70969;BMP280;58630;43.022;25.100;2024-03-23T03:55:03;;;;13.40
70969;BMP280;58630;43.022;25.100;2024-03-23T03:57:36;;;;13.40
70969;BMP280;58630;43.022;25.100;2024-03-23T04:00:02;;;;13.30
70969;BMP280;58630;43.022;25.100;2024-03-23T04:02:28;;;;13.30
70969;BMP280;58630;43.022;25.100;2024-03-23T04:04:54;;;;13.30
70969;BMP280;58630;43.022;25.100;2024-03-23T04:07:20;;;;13.30
70969;BMP280;58630;43.022;25.100;2024-03-23T04:09:48;;;;13.20
70969;BMP280;58630;43.022;25.100;2024-03-23T04:12:13;;;;13.20
70969;BMP280;58630;43.022;25.100;2024-03-23T04:14:39;;;;13.20
70969;BMP280;58630;43.022;25.100;2024-03-23T04:17:05;;;;13.10
70969;BMP280;58630;43.022;25.100;2024-03-23T04:19:30;;;;13.20
70969;BMP280;58630;43.022;25.100;2024-03-23T04:21:56;;;;13.10
70969;BMP280;58630;43.022;25.100;2024-03-23T04:24:21;;;;13.10
70969;BMP280;58630;43.022;25.100;2024-03-23T04:26:47;;;;13.10
70969;BMP280;58630;43.022;25.100;2024-03-23T04:29:13;;;;13.00
70969;BMP280;58630;43.022;25.100;2024-03-23T04:31:39;;;;13.00
70969;BMP280;58630;43.022;25.100;2024-03-23T04:34:04;;;;13.00
70969;BMP280;58630;43.022;25.100;2024-03-23T04:36:30;;;;13.00
70969;BMP280;58630;43.022;25.100;2024-03-23T04:38:59;;;;13.00
70969;BMP280;58630;43.022;25.100;2024-03-23T04:41:25;;;;13.00
70969;BMP280;58630;43.022;25.100;2024-03-23T04:43:51;;;;12.90
70969;BMP280;58630;43.022;25.100;2024-03-23T04:46:16;;;;12.90
70969;BMP280;58630;43.022;25.100;2024-03-23T04:48:42;;;;12.90
70969;BMP280;58630;43.022;25.100;2024-03-23T04:51:10;;;;12.90
70969;BMP280;58630;43.022;25.100;2024-03-23T04:53:37;;;;12.90
70969;BMP280;58630;43.022;25.100;2024-03-23T04:56:03;;;;12.80
70969;BMP280;58630;43.022;25.100;2024-03-23T04:58:29;;;;12.80
70969;BMP280;58630;43.022;25.100;2024-03-23T05:00:55;;;;12.80
70969;BMP280;58630;43.022;25.100;2024-03-23T05:03:21;;;;12.80
70969;BMP280;58630;43.022;25.100;2024-03-23T05:05:47;;;;12.80
70969;BMP280;58630;43.022;25.100;2024-03-23T05:08:13;;;;12.80
70969;BMP280;58630;43.022;25.100;2024-03-23T05:10:38;;;;12.80
70969;BMP280;58630;43.022;25.100;2024-03-23T05:13:04;;;;12.70
70969;BMP280;58630;43.022;25.100;2024-03-23T05:15:29;;;;12.70
70969;BMP280;58630;43.022;25.100;2024-03-23T05:17:55;;;;12.70
70969;BMP280;58630;43.022;25.100;2024-03-23T05:20:21;;;;12.70
70969;BMP280;58630;43.022;25.100;2024-03-23T05:22:46;;;;12.70
70969;BMP280;58630;43.022;25.100;2024-03-23T05:25:12;;;;12.70
70969;BMP280;58630;43.022;25.100;2024-03-23T05:27:37;;;;12.70
70969;BMP280;58630;43.022;25.100;2024-03-23T05:30:03;;;;12.70
70969;BMP280;58630;43.022;25.100;2024-03-23T05:32:29;;;;12.70
70969;BMP280;58630;43.022;25.100;2024-03-23T05:34:54;;;;12.60
70969;BMP280;58630;43.022;25.100;2024-03-23T05:37:23;;;;12.60
70969;BMP280;58630;43.022;25.100;2024-03-23T05:39:49;;;;12.60
70969;BMP280;58630;43.022;25.100;2024-03-23T05:42:17;;;;12.60
70969;BMP280;58630;43.022;25.100;2024-03-23T05:44:46;;;;12.60
70969;BMP280;58630;43.022;25.100;2024-03-23T05:47:12;;;;12.60
70969;BMP280;58630;43.022;25.100;2024-03-23T05:49:40;;;;12.60
70969;BMP280;58630;43.022;25.100;2024-03-23T05:52:07;;;;12.50
70969;BMP280;58630;43.022;25.100;2024-03-23T05:54:33;;;;12.50
70969;BMP280;58630;43.022;25.100;2024-03-23T05:56:58;;;;12.50
70969;BMP280;58630;43.022;25.100;2024-03-23T05:59:24;;;;12.50
70969;BMP280;58630;43.022;25.100;2024-03-23T06:01:50;;;;12.50
70969;BMP280;58630;43.022;25.100;2024-03-23T06:04:15;;;;12.50
70969;BMP280;58630;43.022;25.100;2024-03-23T06:06:41;;;;12.40
70969;BMP280;58630;43.022;25.100;2024-03-23T06:09:07;;;;12.40
70969;BMP280;58630;43.022;25.100;2024-03-23T06:11:32;;;;12.40
70969;BMP280;58630;43.022;25.100;2024-03-23T06:13:58;;;;12.40
70969;BMP280;58630;43.022;25.100;2024-03-23T06:16:23;;;;12.40
70969;BMP280;58630;43.022;25.100;2024-03-23T06:18:53;;;;12.40
70969;BMP280;58630;43.022;25.100;2024-03-23T06:21:18;;;;12.30
70969;BMP280;58630;43.022;25.100;2024-03-23T06:23:44;;;;12.30
70969;BMP280;58630;43.022;25.100;2024-03-23T06:26:19;;;;12.30
70969;BMP280;58630;43.022;25.100;2024-03-23T06:28:45;;;;12.30
70969;BMP280;58630;43.022;25.100;2024-03-23T06:31:10;;;;12.30
70969;BMP280;58630;43.022;25.100;2024-03-23T06:33:36;;;;12.30
70969;BMP280;58630;43.022;25.100;2024-03-23T06:36:02;;;;12.30
70969;BMP280;58630;43.022;25.100;2024-03-23T06:38:28;;;;12.30
70969;BMP280;58630;43.022;25.100;2024-03-23T06:40:54;;;;12.30
70969;BMP280;58630;43.022;25.100;2024-03-23T06:43:19;;;;12.30
70969;BMP280;58630;43.022;25.100;2024-03-23T06:45:51;;;;12.30
70969;BMP280;58630;43.022;25.100;2024-03-23T06:48:17;;;;12.30
70969;BMP280;58630;43.022;25.100;2024-03-23T06:50:43;;;;12.30
70969;BMP280;58630;43.022;25.100;2024-03-23T06:53:08;;;;12.30
70969;BMP280;58630;43.022;25.100;2024-03-23T06:55:34;;;;12.30
70969;BMP280;58630;43.022;25.100;2024-03-23T06:57:59;;;;12.30
70969;BMP280;58630;43.022;25.100;2024-03-23T07:00:25;;;;12.30
70969;BMP280;58630;43.022;25.100;2024-03-23T07:02:51;;;;12.30
70969;BMP280;58630;43.022;25.100;2024-03-23T07:05:16;;;;12.30
70969;BMP280;58630;43.022;25.100;2024-03-23T07:07:42;;;;12.30
70969;BMP280;58630;43.022;25.100;2024-03-23T07:10:08;;;;12.30
70969;BMP280;58630;43.022;25.100;2024-03-23T07:12:33;;;;12.30
70969;BMP280;58630;43.022;25.100;2024-03-23T07:14:59;;;;12.30
70969;BMP280;58630;43.022;25.100;2024-03-23T07:17:24;;;;12.30
70969;BMP280;58630;43.022;25.100;2024-03-23T07:19:51;;;;12.30
70969;BMP280;58630;43.022;25.100;2024-03-23T07:22:16;;;;12.30
70969;BMP280;58630;43.022;25.100;2024-03-23T07:24:42;;;;12.40
70969;BMP280;58630;43.022;25.100;2024-03-23T07:27:08;;;;12.30
70969;BMP280;58630;43.022;25.100;2024-03-23T07:29:37;;;;12.40
70969;BMP280;58630;43.022;25.100;2024-03-23T07:32:02;;;;12.40
70969;BMP280;58630;43.022;25.100;2024-03-23T07:34:28;;;;12.40
70969;BMP280;58630;43.022;25.100;2024-03-23T07:36:53;;;;12.40
70969;BMP280;58630;43.022;25.100;2024-03-23T07:39:19;;;;12.40
70969;BMP280;58630;43.022;25.100;2024-03-23T07:41:44;;;;12.40
70969;BMP280;58630;43.022;25.100;2024-03-23T07:44:10;;;;12.40
70969;BMP280;58630;43.022;25.100;2024-03-23T07:46:36;;;;12.40
70969;BMP280;58630;43.022;25.100;2024-03-23T07:49:02;;;;12.40
70969;BMP280;58630;43.022;25.100;2024-03-23T07:51:29;;;;12.50
70969;BMP280;58630;43.022;25.100;2024-03-23T07:53:54;;;;12.50
70969;BMP280;58630;43.022;25.100;2024-03-23T07:56:20;;;;12.50
70969;BMP280;58630;43.022;25.100;2024-03-23T07:58:47;;;;12.50
70969;BMP280;58630;43.022;25.100;2024-03-23T08:01:14;;;;12.50
70969;BMP280;58630;43.022;25.100;2024-03-23T08:03:40;;;;12.50
70969;BMP280;58630;43.022;25.100;2024-03-23T08:06:27;;;;12.50
70969;BMP280;58630;43.022;25.100;2024-03-23T08:08:54;;;;12.50
70969;BMP280;58630;43.022;25.100;2024-03-23T08:11:28;;;;12.50
70969;BMP280;58630;43.022;25.100;2024-03-23T08:13:54;;;;12.50
70969;BMP280;58630;43.022;25.100;2024-03-23T08:16:20;;;;12.50
70969;BMP280;58630;43.022;25.100;2024-03-23T08:18:45;;;;12.50
70969;BMP280;58630;43.022;25.100;2024-03-23T08:21:11;;;;12.50
70969;BMP280;58630;43.022;25.100;2024-03-23T08:23:36;;;;12.50
70969;BMP280;58630;43.022;25.100;2024-03-23T08:26:06;;;;12.60
70969;BMP280;58630;43.022;25.100;2024-03-23T08:28:32;;;;12.50
70969;BMP280;58630;43.022;25.100;2024-03-23T08:31:00;;;;12.50
70969;BMP280;58630;43.022;25.100;2024-03-23T08:33:26;;;;12.60
70969;BMP280;58630;43.022;25.100;2024-03-23T08:35:55;;;;12.50
70969;BMP280;58630;43.022;25.100;2024-03-23T08:38:21;;;;12.50
70969;BMP280;58630;43.022;25.100;2024-03-23T08:40:47;;;;12.60
70969;BMP280;58630;43.022;25.100;2024-03-23T08:43:13;;;;12.60
70969;BMP280;58630;43.022;25.100;2024-03-23T08:45:38;;;;12.60
70969;BMP280;58630;43.022;25.100;2024-03-23T08:48:04;;;;12.60
70969;BMP280;58630;43.022;25.100;2024-03-23T08:50:29;;;;12.60
70969;BMP280;58630;43.022;25.100;2024-03-23T08:52:55;;;;12.60
70969;BMP280;58630;43.022;25.100;2024-03-23T08:55:20;;;;12.60
70969;BMP280;58630;43.022;25.100;2024-03-23T08:57:46;;;;12.60
70969;BMP280;58630;43.022;25.100;2024-03-23T09:00:12;;;;12.60
70969;BMP280;58630;43.022;25.100;2024-03-23T09:02:37;;;;12.60
70969;BMP280;58630;43.022;25.100;2024-03-23T09:05:03;;;;12.60
70969;BMP280;58630;43.022;25.100;2024-03-23T09:07:32;;;;12.60
70969;BMP280;58630;43.022;25.100;2024-03-23T09:09:58;;;;12.70
70969;BMP280;58630;43.022;25.100;2024-03-23T09:12:23;;;;12.70
70969;BMP280;58630;43.022;25.100;2024-03-23T09:14:50;;;;12.70
70969;BMP280;58630;43.022;25.100;2024-03-23T09:17:15;;;;12.70
70969;BMP280;58630;43.022;25.100;2024-03-23T09:19:41;;;;12.70
70969;BMP280;58630;43.022;25.100;2024-03-23T09:22:06;;;;12.70
70969;BMP280;58630;43.022;25.100;2024-03-23T09:24:32;;;;12.80
70969;BMP280;58630;43.022;25.100;2024-03-23T09:26:57;;;;12.80
70969;BMP280;58630;43.022;25.100;2024-03-23T09:29:23;;;;12.80
70969;BMP280;58630;43.022;25.100;2024-03-23T09:31:48;;;;12.80
70969;BMP280;58630;43.022;25.100;2024-03-23T09:34:14;;;;12.80
70969;BMP280;58630;43.022;25.100;2024-03-23T09:36:40;;;;12.80
70969;BMP280;58630;43.022;25.100;2024-03-23T09:39:06;;;;12.80
70969;BMP280;58630;43.022;25.100;2024-03-23T09:41:33;;;;12.80
70969;BMP280;58630;43.022;25.100;2024-03-23T09:43:58;;;;12.80
70969;BMP280;58630;43.022;25.100;2024-03-23T09:46:24;;;;12.80
70969;BMP280;58630;43.022;25.100;2024-03-23T09:48:50;;;;12.90
70969;BMP280;58630;43.022;25.100;2024-03-23T09:51:15;;;;12.90
70969;BMP280;58630;43.022;25.100;2024-03-23T09:53:41;;;;12.90
70969;BMP280;58630;43.022;25.100;2024-03-23T09:56:07;;;;12.90
70969;BMP280;58630;43.022;25.100;2024-03-23T09:58:33;;;;12.90
70969;BMP280;58630;43.022;25.100;2024-03-23T10:00:59;;;;12.90
70969;BMP280;58630;43.022;25.100;2024-03-23T10:03:24;;;;12.90
70969;BMP280;58630;43.022;25.100;2024-03-23T10:06:02;;;;12.90
70969;BMP280;58630;43.022;25.100;2024-03-23T10:08:29;;;;13.00
70969;BMP280;58630;43.022;25.100;2024-03-23T10:10:55;;;;13.00
70969;BMP280;58630;43.022;25.100;2024-03-23T10:13:27;;;;13.00
70969;BMP280;58630;43.022;25.100;2024-03-23T10:15:57;;;;13.00
70969;BMP280;58630;43.022;25.100;2024-03-23T10:18:23;;;;13.00
70969;BMP280;58630;43.022;25.100;2024-03-23T10:23:18;;;;13.00
70969;BMP280;58630;43.022;25.100;2024-03-23T10:25:44;;;;13.00
70969;BMP280;58630;43.022;25.100;2024-03-23T10:28:11;;;;13.00
70969;BMP280;58630;43.022;25.100;2024-03-23T10:30:37;;;;13.10
70969;BMP280;58630;43.022;25.100;2024-03-23T10:33:09;;;;13.10
70969;BMP280;58630;43.022;25.100;2024-03-23T10:35:36;;;;13.10
70969;BMP280;58630;43.022;25.100;2024-03-23T10:38:02;;;;13.10
70969;BMP280;58630;43.022;25.100;2024-03-23T10:40:29;;;;13.10
70969;BMP280;58630;43.022;25.100;2024-03-23T10:42:55;;;;13.10
70969;BMP280;58630;43.022;25.100;2024-03-23T10:45:22;;;;13.10
70969;BMP280;58630;43.022;25.100;2024-03-23T10:47:48;;;;13.10
70969;BMP280;58630;43.022;25.100;2024-03-23T10:50:13;;;;13.20
70969;BMP280;58630;43.022;25.100;2024-03-23T10:52:39;;;;13.10
70969;BMP280;58630;43.022;25.100;2024-03-23T10:55:07;;;;13.20
70969;BMP280;58630;43.022;25.100;2024-03-23T10:57:36;;;;13.20
70969;BMP280;58630;43.022;25.100;2024-03-23T11:00:03;;;;13.20
70969;BMP280;58630;43.022;25.100;2024-03-23T11:02:29;;;;13.20
70969;BMP280;58630;43.022;25.100;2024-03-23T11:04:55;;;;13.20
70969;BMP280;58630;43.022;25.100;2024-03-23T11:09:49;;;;13.20
70969;BMP280;58630;43.022;25.100;2024-03-23T11:17:27;;;;13.70
70969;BMP280;58630;43.022;25.100;2024-03-23T11:25:25;;;;13.90
70969;BMP280;58630;43.022;25.100;2024-03-23T11:27:52;;;;14.00
70969;BMP280;58630;43.022;25.100;2024-03-23T11:30:18;;;;14.00
70969;BMP280;58630;43.022;25.100;2024-03-23T11:32:47;;;;14.10
70969;BMP280;58630;43.022;25.100;2024-03-23T11:35:29;;;;14.20
70969;BMP280;58630;43.022;25.100;2024-03-23T11:40:27;;;;14.30
70969;BMP280;58630;43.022;25.100;2024-03-23T11:42:56;;;;14.30
70969;BMP280;58630;43.022;25.100;2024-03-23T11:45:21;;;;14.30
70969;BMP280;58630;43.022;25.100;2024-03-23T11:47:47;;;;14.40
70969;BMP280;58630;43.022;25.100;2024-03-23T11:50:19;;;;14.40
70969;BMP280;58630;43.022;25.100;2024-03-23T11:52:44;;;;14.50
70969;BMP280;58630;43.022;25.100;2024-03-23T11:55:10;;;;14.60
70969;BMP280;58630;43.022;25.100;2024-03-23T11:57:36;;;;14.70
70969;BMP280;58630;43.022;25.100;2024-03-23T12:00:01;;;;14.80
70969;BMP280;58630;43.022;25.100;2024-03-23T12:02:27;;;;14.90
70969;BMP280;58630;43.022;25.100;2024-03-23T12:04:53;;;;15.00
70969;BMP280;58630;43.022;25.100;2024-03-23T12:07:19;;;;15.20
70969;BMP280;58630;43.022;25.100;2024-03-23T12:09:44;;;;15.30
70969;BMP280;58630;43.022;25.100;2024-03-23T12:14:40;;;;15.70
70969;BMP280;58630;43.022;25.100;2024-03-23T12:17:12;;;;15.80
70969;BMP280;58630;43.022;25.100;2024-03-23T12:19:38;;;;16.00
70969;BMP280;58630;43.022;25.100;2024-03-23T12:22:04;;;;16.20
70969;BMP280;58630;43.022;25.100;2024-03-23T12:24:30;;;;16.50
70969;BMP280;58630;43.022;25.100;2024-03-23T12:26:59;;;;16.70
70969;BMP280;58630;43.022;25.100;2024-03-23T12:29:26;;;;16.90
70969;BMP280;58630;43.022;25.100;2024-03-23T12:31:51;;;;17.20
70969;BMP280;58630;43.022;25.100;2024-03-23T12:34:17;;;;17.60
70969;BMP280;58630;43.022;25.100;2024-03-23T12:36:42;;;;17.80
70969;BMP280;58630;43.022;25.100;2024-03-23T12:39:08;;;;18.10
70969;BMP280;58630;43.022;25.100;2024-03-23T12:41:33;;;;18.40
70969;BMP280;58630;43.022;25.100;2024-03-23T12:43:59;;;;18.70
70969;BMP280;58630;43.022;25.100;2024-03-23T12:46:24;;;;19.10
70969;BMP280;58630;43.022;25.100;2024-03-23T12:48:50;;;;19.50
70969;BMP280;58630;43.022;25.100;2024-03-23T12:51:15;;;;19.70
70969;BMP280;58630;43.022;25.100;2024-03-23T12:53:41;;;;20.00
70969;BMP280;58630;43.022;25.100;2024-03-23T12:56:06;;;;20.30
70969;BMP280;58630;43.022;25.100;2024-03-23T12:58:32;;;;20.50
70969;BMP280;58630;43.022;25.100;2024-03-23T13:00:58;;;;20.70
70969;BMP280;58630;43.022;25.100;2024-03-23T13:03:23;;;;20.90
70969;BMP280;58630;43.022;25.100;2024-03-23T13:05:52;;;;20.90
70969;BMP280;58630;43.022;25.100;2024-03-23T13:08:17;;;;21.00
70969;BMP280;58630;43.022;25.100;2024-03-23T13:10:43;;;;21.10
70969;BMP280;58630;43.022;25.100;2024-03-23T13:13:10;;;;21.10
70969;BMP280;58630;43.022;25.100;2024-03-23T13:15:35;;;;21.20
70969;BMP280;58630;43.022;25.100;2024-03-23T13:18:01;;;;21.30
70969;BMP280;58630;43.022;25.100;2024-03-23T13:20:26;;;;21.40
70969;BMP280;58630;43.022;25.100;2024-03-23T13:22:52;;;;21.50
70969;BMP280;58630;43.022;25.100;2024-03-23T13:25:18;;;;21.60
70969;BMP280;58630;43.022;25.100;2024-03-23T13:27:44;;;;21.70
70969;BMP280;58630;43.022;25.100;2024-03-23T13:30:10;;;;21.70
70969;BMP280;58630;43.022;25.100;2024-03-23T13:32:35;;;;21.80
70969;BMP280;58630;43.022;25.100;2024-03-23T13:35:01;;;;21.80
70969;BMP280;58630;43.022;25.100;2024-03-23T13:37:27;;;;21.80
70969;BMP280;58630;43.022;25.100;2024-03-23T13:39:52;;;;21.80
70969;BMP280;58630;43.022;25.100;2024-03-23T13:42:18;;;;21.90
70969;BMP280;58630;43.022;25.100;2024-03-23T13:44:43;;;;22.00
70969;BMP280;58630;43.022;25.100;2024-03-23T13:47:09;;;;22.10
70969;BMP280;58630;43.022;25.100;2024-03-23T13:49:34;;;;22.10
70969;BMP280;58630;43.022;25.100;2024-03-23T13:52:00;;;;22.20
70969;BMP280;58630;43.022;25.100;2024-03-23T13:54:26;;;;22.10
70969;BMP280;58630;43.022;25.100;2024-03-23T13:56:52;;;;22.20
70969;BMP280;58630;43.022;25.100;2024-03-23T13:59:18;;;;22.20
70969;BMP280;58630;43.022;25.100;2024-03-23T14:01:44;;;;22.20
70969;BMP280;58630;43.022;25.100;2024-03-23T14:04:11;;;;22.20
70969;BMP280;58630;43.022;25.100;2024-03-23T14:06:36;;;;22.20
70969;BMP280;58630;43.022;25.100;2024-03-23T14:09:02;;;;22.20
70969;BMP280;58630;43.022;25.100;2024-03-23T14:11:29;;;;22.20
70969;BMP280;58630;43.022;25.100;2024-03-23T14:13:54;;;;22.20
70969;BMP280;58630;43.022;25.100;2024-03-23T14:16:20;;;;22.20
70969;BMP280;58630;43.022;25.100;2024-03-23T14:18:46;;;;22.20
70969;BMP280;58630;43.022;25.100;2024-03-23T14:21:11;;;;22.20
70969;BMP280;58630;43.022;25.100;2024-03-23T14:23:37;;;;22.20
70969;BMP280;58630;43.022;25.100;2024-03-23T14:26:03;;;;22.10
70969;BMP280;58630;43.022;25.100;2024-03-23T14:28:28;;;;22.00
70969;BMP280;58630;43.022;25.100;2024-03-23T14:30:55;;;;21.90
70969;BMP280;58630;43.022;25.100;2024-03-23T14:33:21;;;;21.90
70969;BMP280;58630;43.022;25.100;2024-03-23T14:35:53;;;;21.80
70969;BMP280;58630;43.022;25.100;2024-03-23T14:38:19;;;;21.70
70969;BMP280;58630;43.022;25.100;2024-03-23T14:40:45;;;;21.70
70969;BMP280;58630;43.022;25.100;2024-03-23T14:43:11;;;;21.60
70969;BMP280;58630;43.022;25.100;2024-03-23T14:45:37;;;;21.60
70969;BMP280;58630;43.022;25.100;2024-03-23T14:48:02;;;;21.60
70969;BMP280;58630;43.022;25.100;2024-03-23T14:50:28;;;;21.60
70969;BMP280;58630;43.022;25.100;2024-03-23T14:52:53;;;;21.60
70969;BMP280;58630;43.022;25.100;2024-03-23T14:55:19;;;;21.60
70969;BMP280;58630;43.022;25.100;2024-03-23T14:57:45;;;;21.60
70969;BMP280;58630;43.022;25.100;2024-03-23T15:00:11;;;;21.60
70969;BMP280;58630;43.022;25.100;2024-03-23T15:02:37;;;;21.70
70969;BMP280;58630;43.022;25.100;2024-03-23T15:05:03;;;;21.70
70969;BMP280;58630;43.022;25.100;2024-03-23T15:07:30;;;;21.70
70969;BMP280;58630;43.022;25.100;2024-03-23T15:09:55;;;;21.70
70969;BMP280;58630;43.022;25.100;2024-03-23T15:12:21;;;;21.70
70969;BMP280;58630;43.022;25.100;2024-03-23T15:14:47;;;;21.80
70969;BMP280;58630;43.022;25.100;2024-03-23T15:17:12;;;;21.80
70969;BMP280;58630;43.022;25.100;2024-03-23T15:19:38;;;;21.80
70969;BMP280;58630;43.022;25.100;2024-03-23T15:22:04;;;;21.80
70969;BMP280;58630;43.022;25.100;2024-03-23T15:24:29;;;;21.90
70969;BMP280;58630;43.022;25.100;2024-03-23T15:26:56;;;;21.90
70969;BMP280;58630;43.022;25.100;2024-03-23T15:29:22;;;;21.90
70969;BMP280;58630;43.022;25.100;2024-03-23T15:31:48;;;;21.90
70969;BMP280;58630;43.022;25.100;2024-03-23T15:34:18;;;;22.00
70969;BMP280;58630;43.022;25.100;2024-03-23T15:36:44;;;;22.00
70969;BMP280;58630;43.022;25.100;2024-03-23T15:39:10;;;;22.00
70969;BMP280;58630;43.022;25.100;2024-03-23T15:41:35;;;;22.00
70969;BMP280;58630;43.022;25.100;2024-03-23T15:44:02;;;;22.00
70969;BMP280;58630;43.022;25.100;2024-03-23T15:46:27;;;;22.00
70969;BMP280;58630;43.022;25.100;2024-03-23T15:48:53;;;;22.00
70969;BMP280;58630;43.022;25.100;2024-03-23T15:51:19;;;;22.10
70969;BMP280;58630;43.022;25.100;2024-03-23T15:53:45;;;;22.10
70969;BMP280;58630;43.022;25.100;2024-03-23T15:56:11;;;;22.10
70969;BMP280;58630;43.022;25.100;2024-03-23T15:58:38;;;;22.10
70969;BMP280;58630;43.022;25.100;2024-03-23T16:01:04;;;;22.20
70969;BMP280;58630;43.022;25.100;2024-03-23T16:03:30;;;;22.20
70969;BMP280;58630;43.022;25.100;2024-03-23T16:05:58;;;;22.20
70969;BMP280;58630;43.022;25.100;2024-03-23T16:08:24;;;;22.20
70969;BMP280;58630;43.022;25.100;2024-03-23T16:10:50;;;;22.20
70969;BMP280;58630;43.022;25.100;2024-03-23T16:13:16;;;;22.20
70969;BMP280;58630;43.022;25.100;2024-03-23T16:15:42;;;;22.20
70969;BMP280;58630;43.022;25.100;2024-03-23T16:18:07;;;;22.20
70969;BMP280;58630;43.022;25.100;2024-03-23T16:20:33;;;;22.20
70969;BMP280;58630;43.022;25.100;2024-03-23T16:22:59;;;;22.20
70969;BMP280;58630;43.022;25.100;2024-03-23T16:25:25;;;;22.20
70969;BMP280;58630;43.022;25.100;2024-03-23T16:27:50;;;;22.20
70969;BMP280;58630;43.022;25.100;2024-03-23T16:30:16;;;;22.20
70969;BMP280;58630;43.022;25.100;2024-03-23T16:32:41;;;;22.10
70969;BMP280;58630;43.022;25.100;2024-03-23T16:35:07;;;;22.10
70969;BMP280;58630;43.022;25.100;2024-03-23T16:37:35;;;;22.10
70969;BMP280;58630;43.022;25.100;2024-03-23T16:40:00;;;;22.10
70969;BMP280;58630;43.022;25.100;2024-03-23T16:42:26;;;;22.10
70969;BMP280;58630;43.022;25.100;2024-03-23T16:44:52;;;;22.10
70969;BMP280;58630;43.022;25.100;2024-03-23T16:47:17;;;;22.10
70969;BMP280;58630;43.022;25.100;2024-03-23T16:49:43;;;;22.00